createdAt,value
2018-09-21T00:00:12.763Z,6.50
2018-09-21T00:02:41.776Z,6.07
2018-09-21T00:05:10.803Z,6.40
2018-09-21T00:07:39.815Z,5.83
2018-09-21T00:10:08.849Z,6.47
2018-09-21T00:12:37.855Z,6.50
2018-09-21T00:15:06.896Z,7.27
2018-09-21T00:17:35.873Z,7.00
2018-09-21T00:20:04.978Z,7.40
2018-09-21T00:22:33.983Z,7.83
2018-09-21T00:25:03.297Z,7.27
2018-09-21T00:27:32.283Z,6.93
2018-09-21T00:30:01.261Z,6.90
2018-09-21T00:32:30.238Z,6.90
2018-09-21T00:34:59.235Z,6.60
2018-09-21T00:37:28.270Z,7.63
2018-09-21T00:40:03.602Z,6.97
2018-09-21T00:42:32.578Z,7.03
2018-09-21T00:45:01.573Z,7.47
2018-09-21T00:47:30.530Z,7.13
2018-09-21T00:49:59.510Z,6.90
2018-09-21T00:52:28.497Z,7.03
2018-09-21T00:54:57.478Z,6.97
2018-09-21T00:57:26.454Z,6.20
2018-09-21T00:59:55.434Z,6.90
2018-09-21T01:02:24.402Z,6.63
2018-09-21T01:04:53.381Z,7.13
2018-09-21T01:07:22.370Z,6.80
2018-09-21T01:09:51.355Z,7.00
2018-09-21T01:12:20.341Z,7.03
2018-09-21T01:14:49.309Z,6.70
2018-09-21T01:17:18.301Z,6.67
2018-09-21T01:19:47.285Z,7.13
2018-09-21T01:22:16.275Z,6.20
2018-09-21T01:24:45.310Z,6.53
2018-09-21T01:27:15.946Z,6.80
2018-09-21T01:29:45.429Z,6.33
2018-09-21T01:32:14.409Z,6.47
2018-09-21T01:34:43.386Z,7.20
2018-09-21T01:37:12.379Z,6.75
2018-09-21T01:39:41.354Z,6.67
2018-09-21T01:42:10.350Z,6.47
2018-09-21T01:44:39.353Z,6.90
2018-09-21T01:47:08.349Z,7.30
2018-09-21T01:49:37.326Z,7.97
2018-09-21T01:52:06.297Z,7.33
2018-09-21T01:54:35.263Z,7.25
2018-09-21T01:57:04.239Z,7.20
2018-09-21T01:59:33.201Z,7.17
2018-09-21T02:02:02.182Z,7.55
2018-09-21T02:04:36.650Z,7.00
2018-09-21T02:07:06.265Z,7.15
2018-09-21T02:09:35.290Z,7.35
2018-09-21T02:12:04.490Z,7.08
2018-09-21T02:14:33.505Z,7.22
2018-09-21T02:17:02.726Z,7.35
2018-09-21T02:19:31.733Z,7.20
2018-09-21T02:22:00.714Z,7.50
2018-09-21T02:24:29.726Z,7.67
2018-09-21T02:26:58.713Z,7.25
2018-09-21T02:29:27.686Z,8.05
2018-09-21T02:31:56.668Z,7.33
2018-09-21T02:34:25.645Z,7.30
2018-09-21T02:36:54.650Z,7.60
2018-09-21T02:39:23.695Z,7.55
2018-09-21T02:41:52.685Z,7.58
2018-09-21T02:44:21.690Z,7.83
2018-09-21T02:46:50.674Z,7.30
2018-09-21T02:49:19.650Z,8.15
2018-09-21T02:51:48.821Z,7.60
2018-09-21T02:54:17.822Z,8.15
2018-09-21T02:56:46.828Z,7.25
2018-09-21T02:59:15.817Z,7.67
2018-09-21T03:01:44.802Z,8.10
2018-09-21T03:04:13.829Z,8.20
2018-09-21T03:06:42.805Z,8.20
2018-09-21T03:09:12.069Z,8.03
2018-09-21T03:11:41.042Z,8.03
2018-09-21T03:14:10.001Z,8.20
2018-09-21T03:16:38.989Z,7.60
2018-09-21T03:19:08.034Z,8.25
2018-09-21T03:21:37.015Z,8.45
2018-09-21T03:24:06.001Z,7.92
2018-09-21T03:26:34.962Z,8.15
2018-09-21T03:29:03.966Z,8.55
2018-09-21T03:31:32.958Z,7.85
2018-09-21T03:34:02.057Z,8.13
2018-09-21T03:36:31.034Z,8.20
2018-09-21T03:39:00.037Z,8.53
2018-09-21T03:41:29.010Z,8.40
2018-09-21T03:43:58.048Z,7.80
2018-09-21T03:46:27.010Z,8.53
2018-09-21T03:48:56.045Z,8.68
2018-09-21T03:51:25.043Z,8.48
2018-09-21T03:53:54.027Z,8.38
2018-09-21T03:56:22.997Z,8.90
2018-09-21T03:58:51.991Z,8.20
2018-09-21T04:01:20.971Z,8.70
2018-09-21T04:03:49.939Z,8.60
2018-09-21T04:06:18.925Z,8.50
2018-09-21T04:08:47.890Z,9.10
2018-09-21T04:11:16.870Z,8.18
2018-09-21T04:13:45.855Z,8.93
2018-09-21T04:16:14.834Z,8.50
2018-09-21T04:18:43.801Z,8.40
2018-09-21T04:21:12.797Z,8.43
2018-09-21T04:23:41.788Z,8.25
2018-09-21T04:26:10.756Z,8.23
2018-09-21T04:28:39.727Z,8.80
2018-09-21T04:31:08.698Z,8.70
2018-09-21T04:33:37.670Z,8.05
2018-09-21T04:36:06.715Z,8.53
2018-09-21T04:38:35.631Z,8.88
2018-09-21T04:41:04.614Z,8.45
2018-09-21T04:43:33.590Z,8.78
2018-09-21T04:46:02.678Z,9.00
2018-09-21T04:48:31.718Z,8.75
2018-09-21T04:51:00.789Z,8.33
2018-09-21T04:53:29.749Z,8.20
2018-09-21T04:55:58.845Z,8.23
2018-09-21T04:58:27.781Z,9.00
2018-09-21T05:00:56.858Z,9.58
2018-09-21T05:03:25.866Z,7.97
2018-09-21T05:05:54.841Z,8.93
2018-09-21T05:08:23.985Z,9.50
2018-09-21T05:10:53.002Z,8.45
2018-09-21T05:13:21.994Z,13.83
2018-09-21T05:15:52.136Z,8.95
2018-09-21T05:18:21.138Z,9.65
2018-09-21T05:20:50.139Z,12.00
2018-09-21T05:23:19.125Z,8.45
2018-09-21T05:25:48.115Z,9.13
2018-09-21T05:28:17.082Z,8.70
2018-09-21T05:30:46.070Z,8.68
2018-09-21T05:33:15.701Z,7.92
2018-09-21T05:35:44.702Z,8.40
2018-09-21T05:38:13.732Z,8.73
2018-09-21T05:40:42.731Z,8.33
2018-09-21T05:43:11.703Z,7.78
2018-09-21T05:45:40.684Z,7.90
2018-09-21T05:48:09.670Z,7.83
2018-09-21T05:50:38.681Z,8.25
2018-09-21T05:53:08.321Z,7.70
2018-09-21T05:55:37.334Z,7.83
2018-09-21T05:58:06.309Z,8.10
2018-09-21T06:00:35.279Z,7.97
2018-09-21T06:03:04.258Z,7.12
2018-09-21T06:05:33.255Z,6.95
2018-09-21T06:08:02.370Z,8.23
2018-09-21T06:10:31.305Z,7.33
2018-09-21T06:13:00.287Z,8.03
2018-09-21T06:15:29.523Z,7.55
2018-09-21T06:17:58.587Z,7.45
2018-09-21T06:20:27.602Z,7.70
2018-09-21T06:22:56.593Z,7.28
2018-09-21T06:25:25.646Z,7.53
2018-09-21T06:27:54.713Z,7.47
2018-09-21T06:30:23.691Z,7.85
2018-09-21T06:32:52.679Z,7.90
2018-09-21T06:35:21.641Z,7.70
2018-09-21T06:37:50.722Z,7.72
2018-09-21T06:40:19.694Z,8.50
2018-09-21T06:42:48.704Z,8.38
2018-09-21T06:45:17.819Z,8.08
2018-09-21T06:47:46.806Z,8.23
2018-09-21T06:50:15.855Z,9.00
2018-09-21T06:52:44.850Z,8.48
2018-09-21T06:55:13.854Z,8.80
2018-09-21T06:57:42.838Z,7.85
2018-09-21T07:00:11.813Z,8.25
2018-09-21T07:02:40.809Z,8.35
2018-09-21T07:05:16.626Z,8.50
2018-09-21T07:07:46.043Z,8.75
2018-09-21T07:10:15.333Z,8.65
2018-09-21T07:12:44.322Z,9.00
2018-09-21T07:15:13.402Z,8.03
2018-09-21T07:17:42.629Z,8.40
2018-09-21T07:20:11.593Z,8.43
2018-09-21T07:22:40.588Z,8.63
2018-09-21T07:25:09.558Z,8.43
2018-09-21T07:27:38.550Z,8.45
2018-09-21T07:30:07.542Z,8.80
2018-09-21T07:32:36.569Z,8.45
2018-09-21T07:35:05.670Z,8.65
2018-09-21T07:37:34.811Z,8.65
2018-09-21T07:40:04.366Z,8.10
2018-09-21T07:42:33.353Z,8.00
2018-09-21T07:45:02.321Z,8.35
2018-09-21T07:47:31.310Z,8.53
2018-09-21T07:50:00.298Z,8.45
2018-09-21T07:52:29.269Z,8.65
2018-09-21T07:54:58.263Z,8.10
2018-09-21T07:57:27.411Z,8.40
2018-09-21T07:59:56.404Z,8.20
2018-09-21T08:02:25.375Z,8.80
2018-09-21T08:04:54.929Z,8.60
2018-09-21T08:07:24.071Z,8.50
2018-09-21T08:09:53.062Z,7.83
2018-09-21T08:12:22.067Z,8.30
2018-09-21T08:14:51.054Z,8.55
2018-09-21T08:17:20.036Z,8.85
2018-09-21T08:19:49.022Z,8.50
2018-09-21T08:22:18.045Z,8.55
2018-09-21T08:24:47.069Z,8.43
2018-09-21T08:27:17.734Z,8.38
2018-09-21T08:29:46.842Z,8.58
2018-09-21T08:32:15.896Z,8.55
2018-09-21T08:34:45.037Z,7.78
2018-09-21T08:37:14.088Z,8.25
2018-09-21T08:39:43.058Z,8.43
2018-09-21T08:42:12.098Z,8.60
2018-09-21T08:44:41.090Z,8.60
2018-09-21T08:47:10.053Z,8.40
2018-09-21T08:49:39.055Z,8.28
2018-09-21T08:52:08.034Z,8.53
2018-09-21T08:54:37.066Z,8.60
2018-09-21T08:57:06.066Z,8.05
2018-09-21T08:59:35.033Z,8.63
2018-09-21T09:02:04.018Z,7.85
2018-09-21T09:04:33.029Z,8.53
2018-09-21T09:07:02.033Z,8.35
2018-09-21T09:09:31.006Z,8.40
2018-09-21T09:11:59.994Z,8.30
2018-09-21T09:14:28.983Z,8.38
2018-09-21T09:16:57.967Z,8.48
2018-09-21T09:19:27.018Z,8.20
2018-09-21T09:21:55.997Z,8.53
2018-09-21T09:24:25.010Z,8.03
2018-09-21T09:26:53.962Z,8.18
2018-09-21T09:29:22.946Z,8.15
2018-09-21T09:31:51.948Z,8.28
2018-09-21T09:34:20.927Z,8.73
2018-09-21T09:36:50.312Z,7.72
2018-09-21T09:39:19.259Z,7.70
2018-09-21T09:41:48.313Z,8.13
2018-09-21T09:44:17.294Z,8.13
2018-09-21T09:46:46.278Z,7.83
2018-09-21T09:49:15.301Z,7.42
2018-09-21T09:51:44.251Z,8.08
2018-09-21T09:54:13.232Z,7.80
2018-09-21T09:56:42.202Z,7.58
2018-09-21T09:59:11.193Z,7.25
2018-09-21T10:01:40.211Z,7.08
2018-09-21T10:04:09.322Z,7.00
2018-09-21T10:06:38.542Z,6.80
2018-09-21T10:09:09.301Z,6.80
2018-09-21T10:11:38.569Z,6.85
2018-09-21T10:14:08.066Z,6.97
2018-09-21T10:16:37.298Z,6.40
2018-09-21T10:19:06.282Z,6.33
2018-09-21T10:21:35.267Z,6.15
2018-09-21T10:24:04.247Z,6.53
2018-09-21T10:26:33.842Z,6.20
2018-09-21T10:29:03.039Z,6.22
2018-09-21T10:31:32.034Z,6.83
2018-09-21T10:34:01.005Z,6.40
2018-09-21T10:36:29.998Z,6.50
2018-09-21T10:38:58.965Z,5.80
2018-09-21T10:41:27.945Z,6.25
2018-09-21T10:43:57.017Z,6.90
2018-09-21T10:46:25.997Z,5.47
2018-09-21T10:48:54.982Z,5.83
2018-09-21T10:51:24.086Z,5.80
2018-09-21T10:53:53.041Z,6.00
2018-09-21T10:56:22.046Z,5.60
2018-09-21T10:58:51.040Z,5.53
2018-09-21T11:01:20.004Z,5.65
2018-09-21T11:03:49.002Z,5.30
2018-09-21T11:06:18.166Z,5.62
2018-09-21T11:08:47.138Z,5.47
2018-09-21T11:11:16.242Z,5.53
2018-09-21T11:13:45.214Z,5.70
2018-09-21T11:16:14.329Z,5.50
2018-09-21T11:18:43.303Z,5.75
2018-09-21T11:21:12.309Z,5.92
2018-09-21T11:23:41.274Z,5.33
2018-09-21T11:26:10.293Z,5.42
2018-09-21T11:28:39.274Z,5.55
2018-09-21T11:31:08.285Z,5.10
2018-09-21T11:33:37.247Z,5.70
2018-09-21T11:36:06.237Z,5.65
2018-09-21T11:38:35.567Z,5.47
2018-09-21T11:41:04.560Z,5.30
2018-09-21T11:43:33.554Z,5.20
2018-09-21T11:46:02.523Z,5.75
2018-09-21T11:48:31.501Z,5.72
2018-09-21T11:51:00.570Z,6.00
2018-09-21T11:53:29.590Z,5.55
2018-09-21T11:55:58.565Z,5.95
2018-09-21T11:58:27.554Z,5.55
2018-09-21T12:00:56.533Z,5.75
2018-09-21T12:03:25.613Z,6.15
2018-09-21T12:05:54.626Z,5.65
2018-09-21T12:08:23.577Z,5.60
2018-09-21T12:10:52.556Z,5.30
2018-09-21T12:13:21.546Z,5.30
2018-09-21T12:15:50.578Z,5.33
2018-09-21T12:18:19.559Z,5.22
2018-09-21T12:20:48.540Z,5.55
2018-09-21T12:23:17.593Z,5.12
2018-09-21T12:25:47.354Z,5.87
2018-09-21T12:28:16.357Z,5.97
2018-09-21T12:30:45.336Z,5.50
2018-09-21T12:33:14.318Z,4.95
2018-09-21T12:35:43.286Z,5.53
2018-09-21T12:38:12.273Z,5.35
2018-09-21T12:40:41.241Z,5.62
2018-09-21T12:43:10.242Z,4.70
2018-09-21T12:45:39.220Z,4.92
2018-09-21T12:48:08.245Z,3.98
2018-09-21T12:50:37.326Z,4.20
2018-09-21T12:53:06.298Z,4.37
2018-09-21T12:55:35.265Z,4.28
2018-09-21T12:58:04.372Z,4.60
2018-09-21T13:00:38.672Z,4.12
2018-09-21T13:03:07.657Z,4.53
2018-09-21T13:05:36.625Z,4.62
2018-09-21T13:08:05.817Z,4.00
2018-09-21T13:10:34.795Z,4.20
2018-09-21T13:13:03.778Z,4.53
2018-09-21T13:15:32.757Z,4.45
2018-09-21T13:18:01.912Z,4.28
2018-09-21T13:20:30.874Z,4.20
2018-09-21T13:22:59.857Z,4.33
2018-09-21T13:25:28.829Z,4.42
2018-09-21T13:27:57.831Z,4.70
2018-09-21T13:30:26.814Z,4.70
2018-09-21T13:32:55.859Z,4.40
2018-09-21T13:35:24.976Z,4.45
2018-09-21T13:37:53.966Z,4.35
2018-09-21T13:40:22.954Z,4.95
2018-09-21T13:42:51.931Z,4.33
2018-09-21T13:45:21.167Z,4.70
2018-09-21T13:47:50.557Z,4.55
2018-09-21T13:50:19.558Z,4.33
2018-09-21T13:52:48.655Z,4.60
2018-09-21T13:55:17.701Z,4.22
2018-09-21T13:57:46.689Z,5.05
2018-09-21T14:00:15.674Z,4.12
2018-09-21T14:02:44.667Z,4.10
2018-09-21T14:05:13.674Z,3.40
2018-09-21T14:07:43.036Z,2.73
2018-09-21T14:10:12.538Z,2.87
2018-09-21T14:12:41.610Z,2.77
2018-09-21T14:15:10.605Z,2.50
2018-09-21T14:17:39.677Z,3.03
2018-09-21T14:20:08.666Z,4.10
2018-09-21T14:22:37.638Z,4.30
2018-09-21T14:25:06.734Z,4.20
2018-09-21T14:27:35.774Z,4.30
2018-09-21T14:30:05.230Z,3.93
2018-09-21T14:32:34.206Z,3.70
2018-09-21T14:35:03.242Z,3.70
2018-09-21T14:37:32.233Z,3.60
2018-09-21T14:40:01.223Z,3.80
2018-09-21T14:42:30.246Z,3.60
2018-09-21T14:44:59.348Z,3.80
2018-09-21T14:47:28.317Z,4.30
2018-09-21T14:49:57.337Z,4.23
2018-09-21T14:52:26.502Z,4.20
2018-09-21T14:54:55.558Z,4.37
2018-09-21T14:57:24.569Z,3.97
2018-09-21T14:59:53.668Z,3.70
2018-09-21T15:02:22.675Z,3.90
2018-09-21T15:04:51.694Z,4.00
2018-09-21T15:07:20.706Z,3.97
2018-09-21T15:09:49.850Z,4.07
2018-09-21T15:12:18.838Z,3.73
2018-09-21T15:14:47.834Z,4.07
2018-09-21T15:17:16.822Z,3.73
2018-09-21T15:19:45.802Z,3.80
2018-09-21T15:22:14.789Z,3.23
2018-09-21T15:24:43.759Z,3.70
2018-09-21T15:27:13.906Z,4.03
2018-09-21T15:29:43.065Z,4.10
2018-09-21T15:32:12.322Z,3.70
2018-09-21T15:34:41.293Z,3.80
2018-09-21T15:37:10.285Z,4.20
2018-09-21T15:39:39.293Z,4.60
2018-09-21T15:42:08.297Z,4.00
2018-09-21T15:44:37.279Z,3.60
2018-09-21T15:47:06.345Z,3.70
2018-09-21T15:49:35.329Z,4.00
2018-09-21T15:52:05.024Z,3.50
2018-09-21T15:54:34.001Z,3.50
2018-09-21T15:57:03.078Z,3.50
2018-09-21T15:59:32.062Z,3.70
2018-09-21T16:02:01.255Z,3.90
2018-09-21T16:04:30.238Z,3.90
2018-09-21T16:07:00.089Z,3.50
2018-09-21T16:09:29.192Z,3.50
2018-09-21T16:11:58.183Z,3.93
2018-09-21T16:14:27.255Z,3.83
2018-09-21T16:16:56.176Z,3.63
2018-09-21T16:19:25.150Z,3.43
2018-09-21T16:21:54.128Z,3.63
2018-09-21T16:24:23.117Z,3.80
2018-09-21T16:26:52.106Z,3.90
2018-09-21T16:29:21.109Z,3.80
2018-09-21T16:31:50.173Z,4.10
2018-09-21T16:34:19.162Z,4.00
2018-09-21T16:36:48.256Z,4.00
2018-09-21T16:39:17.260Z,4.00
2018-09-21T16:41:46.304Z,4.17
2018-09-21T16:44:15.545Z,4.47
2018-09-21T16:46:44.549Z,4.03
2018-09-21T16:49:13.555Z,4.50
2018-09-21T16:51:42.674Z,4.00
2018-09-21T16:54:11.627Z,4.70
2018-09-21T16:56:40.623Z,4.60
2018-09-21T16:59:09.635Z,4.10
2018-09-21T17:01:38.622Z,4.30
2018-09-21T17:04:07.779Z,4.40
2018-09-21T17:06:37.491Z,4.17
2018-09-21T17:09:09.022Z,4.60
2018-09-21T17:11:39.062Z,4.57
2018-09-21T17:14:08.058Z,4.77
2018-09-21T17:16:37.150Z,4.30
2018-09-21T17:19:06.342Z,4.70
2018-09-21T17:21:35.402Z,4.60
2018-09-21T17:24:04.455Z,4.63
2018-09-21T17:26:33.468Z,4.40
2018-09-21T17:29:02.722Z,4.27
2018-09-21T17:31:31.742Z,4.73
2018-09-21T17:34:00.750Z,4.93
2018-09-21T17:36:29.736Z,4.37
2018-09-21T17:38:58.714Z,4.37
2018-09-21T17:41:27.769Z,4.63
2018-09-21T17:43:59.728Z,4.77
2018-09-21T17:46:29.009Z,4.87
2018-09-21T17:48:58.007Z,4.30
2018-09-21T17:51:27.118Z,4.27
2018-09-21T17:53:56.097Z,4.30
2018-09-21T17:56:25.066Z,3.93
2018-09-21T17:58:54.099Z,4.33
2018-09-21T18:01:23.157Z,4.30
2018-09-21T18:03:52.161Z,3.97
2018-09-21T18:06:21.206Z,4.03
2018-09-21T18:08:50.514Z,3.70
2018-09-21T18:11:19.490Z,4.43
2018-09-21T18:13:48.485Z,4.40
2018-09-21T18:16:17.631Z,4.30
2018-09-21T18:18:46.519Z,4.13
2018-09-21T18:21:15.518Z,4.40
2018-09-21T18:23:44.554Z,4.13
2018-09-21T18:26:20.056Z,4.10
2018-09-21T18:28:49.102Z,4.40
2018-09-21T18:31:18.175Z,4.17
2018-09-21T18:33:47.269Z,4.33
2018-09-21T18:36:17.417Z,4.67
2018-09-21T18:38:46.401Z,4.00
2018-09-21T18:41:15.470Z,4.10
2018-09-21T18:43:44.490Z,3.83
2018-09-21T18:46:13.501Z,4.13
2018-09-21T18:48:42.561Z,4.03
2018-09-21T18:51:11.637Z,4.27
2018-09-21T18:53:40.657Z,4.30
2018-09-21T18:56:09.629Z,4.37
2018-09-21T18:58:38.654Z,4.73
2018-09-21T19:01:07.646Z,4.97
2018-09-21T19:03:36.630Z,4.83
2018-09-21T19:06:05.659Z,5.10
2018-09-21T19:08:34.657Z,5.30
2018-09-21T19:11:03.811Z,5.17
2018-09-21T19:13:32.817Z,4.73
2018-09-21T19:16:02.026Z,4.63
2018-09-21T19:18:31.029Z,4.40
2018-09-21T19:21:00.081Z,4.20
2018-09-21T19:23:29.082Z,4.57
2018-09-21T19:25:58.116Z,4.53
2018-09-21T19:28:27.177Z,4.50
2018-09-21T19:30:56.261Z,4.20
2018-09-21T19:33:25.261Z,4.57
2018-09-21T19:35:54.238Z,4.37
2018-09-21T19:38:23.214Z,4.47
2018-09-21T19:40:52.368Z,5.00
2018-09-21T19:43:21.838Z,4.90
2018-09-21T19:45:50.879Z,4.80
2018-09-21T19:48:19.912Z,4.37
2018-09-21T19:50:49.108Z,4.40
2018-09-21T19:53:18.219Z,4.40
2018-09-21T19:55:47.205Z,4.67
2018-09-21T19:58:16.181Z,4.57
2018-09-21T20:00:45.238Z,4.50
2018-09-21T20:03:14.222Z,4.83
2018-09-21T20:05:43.222Z,5.03
2018-09-21T20:08:12.198Z,4.67
2018-09-21T20:10:41.226Z,4.63
2018-09-21T20:13:10.206Z,4.27
2018-09-21T20:15:39.407Z,4.57
2018-09-21T20:18:08.666Z,4.43
2018-09-21T20:20:37.668Z,4.10
2018-09-21T20:23:06.661Z,3.90
2018-09-21T20:25:35.654Z,4.00
2018-09-21T20:28:04.765Z,4.40
2018-09-21T20:30:39.254Z,3.90
2018-09-21T20:33:13.534Z,4.00
2018-09-21T20:35:42.711Z,4.20
2018-09-21T20:38:11.658Z,4.10
2018-09-21T20:40:40.721Z,4.10
2018-09-21T20:43:09.724Z,3.50
2018-09-21T20:45:38.713Z,3.67
2018-09-21T20:48:07.690Z,3.40
2018-09-21T20:50:36.777Z,3.37
2018-09-21T20:53:05.766Z,3.30
2018-09-21T20:55:34.767Z,3.30
2018-09-21T20:58:03.758Z,3.37
2018-09-21T21:00:32.757Z,3.20
2018-09-21T21:03:01.838Z,3.00
2018-09-21T21:05:30.802Z,3.00
2018-09-21T21:07:59.780Z,2.90
2018-09-21T21:10:28.834Z,3.03
2018-09-21T21:12:57.848Z,3.20
2018-09-21T21:15:26.842Z,3.37
2018-09-21T21:17:55.815Z,2.93
2018-09-21T21:20:24.805Z,2.70
2018-09-21T21:22:53.869Z,3.10
2018-09-21T21:25:22.859Z,3.33
2018-09-21T21:27:51.846Z,3.07
2018-09-21T21:30:21.021Z,3.37
2018-09-21T21:32:50.091Z,2.83
2018-09-21T21:35:19.134Z,3.13
2018-09-21T21:37:48.122Z,3.33
2018-09-21T21:40:17.115Z,2.80
2018-09-21T21:42:46.076Z,2.90
2018-09-21T21:45:15.062Z,2.70
2018-09-21T21:47:44.048Z,2.90
2018-09-21T21:50:13.058Z,2.73
2018-09-21T21:52:42.031Z,2.80
2018-09-21T21:55:11.030Z,2.73
2018-09-21T21:57:40.017Z,2.80
2018-09-21T22:00:09.625Z,2.80
2018-09-21T22:02:38.613Z,2.57
2018-09-21T22:05:07.618Z,2.80
2018-09-21T22:07:37.901Z,2.83
2018-09-21T22:10:08.104Z,2.60
2018-09-21T22:12:42.411Z,2.60
2018-09-21T22:15:13.635Z,2.90
2018-09-21T22:17:42.625Z,3.13
2018-09-21T22:20:11.754Z,3.10
2018-09-21T22:22:40.857Z,3.30
2018-09-21T22:25:10.460Z,3.20
2018-09-21T22:27:39.455Z,2.90
2018-09-21T22:30:08.718Z,3.17
2018-09-21T22:32:38.276Z,2.70
2018-09-21T22:35:07.329Z,2.73
2018-09-21T22:37:36.323Z,2.63
2018-09-21T22:40:05.545Z,3.17
2018-09-21T22:42:34.549Z,2.90
2018-09-21T22:45:03.603Z,2.70
2018-09-21T22:47:32.645Z,2.80
2018-09-21T22:50:09.865Z,2.60
2018-09-21T22:52:39.474Z,2.57
2018-09-21T22:55:08.467Z,2.37
2018-09-21T22:57:37.523Z,2.73
2018-09-21T23:00:06.534Z,2.90
2018-09-21T23:02:35.526Z,2.60
2018-09-21T23:05:04.746Z,2.83
2018-09-21T23:07:33.743Z,2.50
2018-09-21T23:10:02.765Z,2.63
2018-09-21T23:12:31.750Z,2.77
2018-09-21T23:15:00.727Z,2.50
2018-09-21T23:17:29.721Z,2.80
2018-09-21T23:19:58.720Z,2.90
2018-09-21T23:22:27.702Z,2.90
2018-09-21T23:24:56.671Z,2.90
2018-09-21T23:27:25.668Z,2.97
2018-09-21T23:29:54.646Z,2.77
2018-09-21T23:32:23.629Z,3.00
2018-09-21T23:34:52.648Z,3.23
2018-09-21T23:37:21.628Z,2.80
2018-09-21T23:39:50.697Z,3.03
2018-09-21T23:42:19.738Z,3.07
2018-09-21T23:44:48.705Z,2.73
2018-09-21T23:47:17.701Z,2.63
2018-09-21T23:49:46.689Z,2.67
2018-09-21T23:52:15.748Z,2.73
2018-09-21T23:54:44.743Z,2.57
2018-09-21T23:57:13.766Z,2.60
2018-09-21T23:59:42.898Z,2.53
